sensor_id;sensor_type;location;lat;lon;timestamp;pressure;altitude;pressure_sealevel;temperature;humidity
54407;BME280;40313;50.308;30.374;2022-12-18T02:58:17;100029.00;;;-3.33;100.00
54407;BME280;40313;50.308;30.374;2022-12-18T03:00:50;100034.97;;;-3.33;100.00
54407;BME280;40313;50.308;30.374;2022-12-18T03:03:24;100037.53;;;-3.30;100.00
54407;BME280;40313;50.308;30.374;2022-12-18T03:05:53;100030.69;;;-3.34;100.00
54407;BME280;40313;50.308;30.374;2022-12-18T03:08:24;100040.91;;;-3.31;100.00
54407;BME280;40313;50.308;30.374;2022-12-18T03:10:57;100054.50;;;-3.32;100.00
54407;BME280;40313;50.308;30.374;2022-12-18T03:13:29;100058.72;;;-3.40;100.00
54407;BME280;40313;50.308;30.374;2022-12-18T03:16:00;100061.22;;;-3.44;100.00
54407;BME280;40313;50.308;30.374;2022-12-18T03:18:32;100058.72;;;-3.41;100.00
54407;BME280;40313;50.308;30.374;2022-12-18T03:21:05;100066.31;;;-3.46;100.00
54407;BME280;40313;50.308;30.374;2022-12-18T03:23:32;100068.00;;;-3.51;100.00
54407;BME280;40313;50.308;30.374;2022-12-18T03:26:01;100055.16;;;-3.57;100.00
54407;BME280;40313;50.308;30.374;2022-12-18T03:28:33;100059.44;;;-3.58;100.00
54407;BME280;40313;50.308;30.374;2022-12-18T03:31:02;100069.59;;;-3.62;100.00
54407;BME280;40313;50.308;30.374;2022-12-18T03:33:31;100072.13;;;-3.64;100.00
54407;BME280;40313;50.308;30.374;2022-12-18T03:36:01;100071.28;;;-3.63;100.00
54407;BME280;40313;50.308;30.374;2022-12-18T03:38:28;100074.66;;;-3.67;100.00
54407;BME280;40313;50.308;30.374;2022-12-18T03:40:56;100078.84;;;-3.74;100.00
54407;BME280;40313;50.308;30.374;2022-12-18T03:43:28;100095.78;;;-3.77;100.00
54407;BME280;40313;50.308;30.374;2022-12-18T03:46:00;100093.19;;;-3.82;100.00
54407;BME280;40313;50.308;30.374;2022-12-18T03:48:29;100102.59;;;-3.79;100.00
54407;BME280;40313;50.308;30.374;2022-12-18T03:51:00;100083.78;;;-3.91;100.00
54407;BME280;40313;50.308;30.374;2022-12-18T03:53:32;100103.38;;;-3.85;100.00
54407;BME280;40313;50.308;30.374;2022-12-18T03:56:01;100112.66;;;-3.89;100.00
54407;BME280;40313;50.308;30.374;2022-12-18T03:58:29;100111.81;;;-3.92;100.00
54407;BME280;40313;50.308;30.374;2022-12-18T04:00:59;100116.91;;;-3.92;100.00
54407;BME280;40313;50.308;30.374;2022-12-18T04:03:27;100118.59;;;-3.93;100.00
54407;BME280;40313;50.308;30.374;2022-12-18T04:05:55;100120.22;;;-4.01;100.00
54407;BME280;40313;50.308;30.374;2022-12-18T04:08:23;100122.78;;;-3.98;100.00
54407;BME280;40313;50.308;30.374;2022-12-18T04:10:50;100133.75;;;-4.04;100.00
54407;BME280;40313;50.308;30.374;2022-12-18T04:13:21;100141.41;;;-4.05;100.00
54407;BME280;40313;50.308;30.374;2022-12-18T04:15:48;100149.03;;;-4.07;100.00
54407;BME280;40313;50.308;30.374;2022-12-18T04:18:14;100162.56;;;-4.11;100.00
54407;BME280;40313;50.308;30.374;2022-12-18T04:20:42;100154.94;;;-4.08;100.00
54407;BME280;40313;50.308;30.374;2022-12-18T04:23:09;100162.59;;;-4.08;100.00
54407;BME280;40313;50.308;30.374;2022-12-18T04:25:35;100169.41;;;-4.08;100.00
54407;BME280;40313;50.308;30.374;2022-12-18T04:28:02;100176.25;;;-4.04;100.00
54407;BME280;40313;50.308;30.374;2022-12-18T04:30:28;100176.16;;;-4.09;100.00
54407;BME280;40313;50.308;30.374;2022-12-18T04:32:54;100168.53;;;-4.09;100.00
54407;BME280;40313;50.308;30.374;2022-12-18T04:35:21;100175.31;;;-4.09;100.00
54407;BME280;40313;50.308;30.374;2022-12-18T04:37:48;100176.97;;;-4.13;100.00
54407;BME280;40313;50.308;30.374;2022-12-18T04:40:15;100177.81;;;-4.14;100.00
54407;BME280;40313;50.308;30.374;2022-12-18T04:42:41;100192.19;;;-4.18;100.00
54407;BME280;40313;50.308;30.374;2022-12-18T04:45:07;100188.03;;;-4.11;100.00
54407;BME280;40313;50.308;30.374;2022-12-18T04:47:34;100185.44;;;-4.15;100.00
54407;BME280;40313;50.308;30.374;2022-12-18T04:50:00;100193.91;;;-4.18;100.00
54407;BME280;40313;50.308;30.374;2022-12-18T04:52:27;100199.78;;;-4.22;100.00
54407;BME280;40313;50.308;30.374;2022-12-18T04:54:54;100204.03;;;-4.24;100.00
54407;BME280;40313;50.308;30.374;2022-12-18T04:57:21;100212.44;;;-4.28;100.00
54407;BME280;40313;50.308;30.374;2022-12-18T04:59:47;100226.03;;;-4.28;100.00
54407;BME280;40313;50.308;30.374;2022-12-18T05:02:13;100221.78;;;-4.27;100.00
54407;BME280;40313;50.308;30.374;2022-12-18T05:04:40;100217.53;;;-4.30;100.00
54407;BME280;40313;50.308;30.374;2022-12-18T05:07:06;100215.84;;;-4.28;100.00
54407;BME280;40313;50.308;30.374;2022-12-18T05:09:33;100222.66;;;-4.28;100.00
54407;BME280;40313;50.308;30.374;2022-12-18T05:12:00;100225.09;;;-4.33;100.00
54407;BME280;40313;50.308;30.374;2022-12-18T05:14:27;100226.81;;;-4.32;100.00
54407;BME280;40313;50.308;30.374;2022-12-18T05:16:54;100242.06;;;-4.37;100.00
54407;BME280;40313;50.308;30.374;2022-12-18T05:19:20;100245.44;;;-4.38;100.00
54407;BME280;40313;50.308;30.374;2022-12-18T05:21:46;100252.25;;;-4.37;100.00
54407;BME280;40313;50.308;30.374;2022-12-18T05:24:13;100253.88;;;-4.39;100.00
54407;BME280;40313;50.308;30.374;2022-12-18T05:26:39;100264.00;;;-4.43;100.00
54407;BME280;40313;50.308;30.374;2022-12-18T05:29:07;100265.75;;;-4.41;100.00
54407;BME280;40313;50.308;30.374;2022-12-18T05:31:37;100263.16;;;-4.44;100.00
54407;BME280;40313;50.308;30.374;2022-12-18T05:34:03;100269.06;;;-4.48;100.00
54407;BME280;40313;50.308;30.374;2022-12-18T05:36:30;100276.72;;;-4.45;100.00
54407;BME280;40313;50.308;30.374;2022-12-18T05:38:57;100280.97;;;-4.47;100.00
54407;BME280;40313;50.308;30.374;2022-12-18T05:41:23;100280.97;;;-4.47;100.00
54407;BME280;40313;50.308;30.374;2022-12-18T05:43:50;100286.06;;;-4.47;100.00
54407;BME280;40313;50.308;30.374;2022-12-18T05:46:18;100296.19;;;-4.50;100.00
54407;BME280;40313;50.308;30.374;2022-12-18T05:48:44;100293.66;;;-4.48;100.00
54407;BME280;40313;50.308;30.374;2022-12-18T05:51:14;100315.72;;;-4.49;100.00
54407;BME280;40313;50.308;30.374;2022-12-18T05:53:41;100314.03;;;-4.50;100.00
54407;BME280;40313;50.308;30.374;2022-12-18T05:56:11;100319.88;;;-4.54;100.00
54407;BME280;40313;50.308;30.374;2022-12-18T05:58:38;100324.13;;;-4.53;100.00
54407;BME280;40313;50.308;30.374;2022-12-18T06:01:07;100330.03;;;-4.57;100.00
54407;BME280;40313;50.308;30.374;2022-12-18T06:03:35;100332.63;;;-4.54;100.00
54407;BME280;40313;50.308;30.374;2022-12-18T06:06:02;100339.34;;;-4.58;100.00
54407;BME280;40313;50.308;30.374;2022-12-18T06:08:29;100336.78;;;-4.59;100.00
54407;BME280;40313;50.308;30.374;2022-12-18T06:10:55;100347.75;;;-4.62;100.00
54407;BME280;40313;50.308;30.374;2022-12-18T06:13:22;100330.81;;;-4.61;100.00
54407;BME280;40313;50.308;30.374;2022-12-18T06:15:48;100340.03;;;-4.66;100.00
54407;BME280;40313;50.308;30.374;2022-12-18T06:18:15;100338.31;;;-4.68;100.00
54407;BME280;40313;50.308;30.374;2022-12-18T06:20:43;100348.59;;;-4.63;100.00
54407;BME280;40313;50.308;30.374;2022-12-18T06:23:09;100356.25;;;-4.63;100.00
54407;BME280;40313;50.308;30.374;2022-12-18T06:25:37;100357.00;;;-4.69;100.00
54407;BME280;40313;50.308;30.374;2022-12-18T06:28:03;100364.66;;;-4.67;100.00
54407;BME280;40313;50.308;30.374;2022-12-18T06:30:30;100363.78;;;-4.68;100.00
54407;BME280;40313;50.308;30.374;2022-12-18T06:32:57;100368.81;;;-4.71;100.00
54407;BME280;40313;50.308;30.374;2022-12-18T06:35:23;100376.47;;;-4.69;100.00
54407;BME280;40313;50.308;30.374;2022-12-18T06:37:51;100385.03;;;-4.65;100.00
54407;BME280;40313;50.308;30.374;2022-12-18T06:40:17;100391.94;;;-4.60;100.00
54407;BME280;40313;50.308;30.374;2022-12-18T06:42:43;100394.38;;;-4.64;100.00
54407;BME280;40313;50.308;30.374;2022-12-18T06:45:10;100396.09;;;-4.63;100.00
54407;BME280;40313;50.308;30.374;2022-12-18T06:47:37;100403.75;;;-4.62;100.00
54407;BME280;40313;50.308;30.374;2022-12-18T06:50:03;100394.50;;;-4.58;100.00
54407;BME280;40313;50.308;30.374;2022-12-18T06:52:31;100412.38;;;-4.55;100.00
54407;BME280;40313;50.308;30.374;2022-12-18T06:54:59;100410.69;;;-4.55;100.00
54407;BME280;40313;50.308;30.374;2022-12-18T06:57:25;100411.56;;;-4.54;100.00
54407;BME280;40313;50.308;30.374;2022-12-18T06:59:51;100415.78;;;-4.55;100.00
54407;BME280;40313;50.308;30.374;2022-12-18T07:02:18;100425.03;;;-4.60;100.00
54407;BME280;40313;50.308;30.374;2022-12-18T07:04:44;100431.03;;;-4.55;100.00
54407;BME280;40313;50.308;30.374;2022-12-18T07:07:10;100434.44;;;-4.56;100.00
54407;BME280;40313;50.308;30.374;2022-12-18T11:02:26;100674.75;;;-4.89;100.00
54407;BME280;40313;50.308;30.374;2022-12-18T11:04:58;100694.25;;;-4.89;100.00
54407;BME280;40313;50.308;30.374;2022-12-18T11:07:24;100700.84;;;-4.96;100.00
54407;BME280;40313;50.308;30.374;2022-12-18T11:10:02;100703.56;;;-4.90;100.00
54407;BME280;40313;50.308;30.374;2022-12-18T11:12:29;100709.56;;;-4.86;100.00
54407;BME280;40313;50.308;30.374;2022-12-18T11:14:55;100714.66;;;-4.86;100.00
54407;BME280;40313;50.308;30.374;2022-12-18T11:17:24;100717.13;;;-4.89;100.00
54407;BME280;40313;50.308;30.374;2022-12-18T11:19:55;100721.56;;;-4.82;100.00
54407;BME280;40313;50.308;30.374;2022-12-18T11:22:23;100729.16;;;-4.83;100.00
54407;BME280;40313;50.308;30.374;2022-12-18T11:24:52;100736.78;;;-4.83;100.00
54407;BME280;40313;50.308;30.374;2022-12-18T11:27:19;100737.56;;;-4.86;100.00
54407;BME280;40313;50.308;30.374;2022-12-18T11:29:46;100735.91;;;-4.86;100.00
54407;BME280;40313;50.308;30.374;2022-12-18T11:32:27;100737.53;;;-4.88;100.00
54407;BME280;40313;50.308;30.374;2022-12-18T11:34:57;100745.84;;;-4.95;100.00
54407;BME280;40313;50.308;30.374;2022-12-18T11:37:25;100741.72;;;-4.91;100.00
54407;BME280;40313;50.308;30.374;2022-12-18T11:39:54;100745.16;;;-4.88;100.00
54407;BME280;40313;50.308;30.374;2022-12-18T11:42:23;100748.50;;;-4.90;100.00
54407;BME280;40313;50.308;30.374;2022-12-18T11:44:51;100744.97;;;-4.97;100.00
54407;BME280;40313;50.308;30.374;2022-12-18T11:47:20;100756.28;;;-4.86;100.00
54407;BME280;40313;50.308;30.374;2022-12-18T11:49:48;100767.13;;;-4.93;100.00
54407;BME280;40313;50.308;30.374;2022-12-18T11:52:18;100762.03;;;-4.93;100.00
54407;BME280;40313;50.308;30.374;2022-12-18T11:54:45;100765.50;;;-4.89;100.00
54407;BME280;40313;50.308;30.374;2022-12-18T11:57:14;100783.38;;;-4.86;100.00
54407;BME280;40313;50.308;30.374;2022-12-18T11:59:47;100778.97;;;-4.93;100.00
54407;BME280;40313;50.308;30.374;2022-12-18T12:02:21;100778.19;;;-4.91;100.00
54407;BME280;40313;50.308;30.374;2022-12-18T12:05:00;100787.66;;;-4.85;100.00
54407;BME280;40313;50.308;30.374;2022-12-18T12:07:33;100796.03;;;-4.89;100.00
54407;BME280;40313;50.308;30.374;2022-12-18T12:10:07;100795.19;;;-4.90;100.00
54407;BME280;40313;50.308;30.374;2022-12-18T12:12:42;100802.72;;;-4.94;100.00
54407;BME280;40313;50.308;30.374;2022-12-18T12:15:27;100800.22;;;-4.93;100.00
54407;BME280;40313;50.308;30.374;2022-12-18T12:18:01;100803.41;;;-5.00;100.00
54407;BME280;40313;50.308;30.374;2022-12-18T12:20:33;100799.19;;;-4.99;100.00
54407;BME280;40313;50.308;30.374;2022-12-18T12:23:05;100800.72;;;-5.05;100.00
54407;BME280;40313;50.308;30.374;2022-12-18T12:25:37;100805.00;;;-5.04;100.00
54407;BME280;40313;50.308;30.374;2022-12-18T12:28:11;100802.72;;;-4.94;100.00
54407;BME280;40313;50.308;30.374;2022-12-18T12:30:41;100813.44;;;-5.05;100.00
54407;BME280;40313;50.308;30.374;2022-12-18T12:33:15;100811.06;;;-5.00;100.00
54407;BME280;40313;50.308;30.374;2022-12-18T12:35:46;100819.56;;;-4.98;100.00
54407;BME280;40313;50.308;30.374;2022-12-18T12:38:19;100819.59;;;-4.96;100.00
54407;BME280;40313;50.308;30.374;2022-12-18T12:40:49;100839.03;;;-5.00;100.00
54407;BME280;40313;50.308;30.374;2022-12-18T12:43:27;100834.00;;;-4.98;100.00
54407;BME280;40313;50.308;30.374;2022-12-18T12:45:55;100845.88;;;-4.97;100.00
54407;BME280;40313;50.308;30.374;2022-12-18T12:48:26;100839.13;;;-4.97;100.00
54407;BME280;40313;50.308;30.374;2022-12-18T12:50:54;100859.50;;;-4.95;100.00
54407;BME280;40313;50.308;30.374;2022-12-18T12:53:23;100852.69;;;-4.96;100.00
54407;BME280;40313;50.308;30.374;2022-12-18T12:55:52;100867.91;;;-4.98;100.00
54407;BME280;40313;50.308;30.374;2022-12-18T12:58:21;100872.84;;;-5.04;100.00
54407;BME280;40313;50.308;30.374;2022-12-18T13:00:50;100882.03;;;-5.09;100.00
54407;BME280;40313;50.308;30.374;2022-12-18T13:03:24;100878.69;;;-5.08;100.00
54407;BME280;40313;50.308;30.374;2022-12-18T13:05:54;100876.13;;;-5.08;100.00
54407;BME280;40313;50.308;30.374;2022-12-18T13:08:26;100876.06;;;-5.11;100.00
54407;BME280;40313;50.308;30.374;2022-12-18T13:10:53;100887.84;;;-5.13;100.00
54407;BME280;40313;50.308;30.374;2022-12-18T13:13:48;100885.03;;;-5.24;100.00
54407;BME280;40313;50.308;30.374;2022-12-18T13:16:14;100888.53;;;-5.19;100.00
54407;BME280;40313;50.308;30.374;2022-12-18T13:18:47;100883.38;;;-5.22;100.00
54407;BME280;40313;50.308;30.374;2022-12-18T13:21:16;100900.28;;;-5.24;100.00
54407;BME280;40313;50.308;30.374;2022-12-18T13:23:48;100894.34;;;-5.23;100.00
54407;BME280;40313;50.308;30.374;2022-12-18T13:26:30;100878.22;;;-5.25;100.00
54407;BME280;40313;50.308;30.374;2022-12-18T13:28:59;100902.78;;;-5.26;100.00
54407;BME280;40313;50.308;30.374;2022-12-18T13:34:14;100929.06;;;-5.25;100.00
54407;BME280;40313;50.308;30.374;2022-12-18T13:36:42;100939.22;;;-5.27;100.00
54407;BME280;40313;50.308;30.374;2022-12-18T13:41:52;100945.28;;;-5.22;100.00
54407;BME280;40313;50.308;30.374;2022-12-18T13:44:26;100943.53;;;-5.24;100.00
54407;BME280;40313;50.308;30.374;2022-12-18T13:46:55;100951.34;;;-5.18;100.00
54407;BME280;40313;50.308;30.374;2022-12-18T13:49:22;100955.66;;;-5.15;100.00
54407;BME280;40313;50.308;30.374;2022-12-18T13:51:50;100961.50;;;-5.18;100.00
54407;BME280;40313;50.308;30.374;2022-12-18T13:54:18;100967.59;;;-5.13;100.00
54407;BME280;40313;50.308;30.374;2022-12-18T13:56:46;100974.44;;;-5.10;100.00
54407;BME280;40313;50.308;30.374;2022-12-18T13:59:15;100966.63;;;-5.16;100.00
54407;BME280;40313;50.308;30.374;2022-12-18T14:01:43;100973.34;;;-5.20;100.00
54407;BME280;40313;50.308;30.374;2022-12-18T14:04:10;100978.25;;;-5.25;100.00
54407;BME280;40313;50.308;30.374;2022-12-18T14:06:37;100986.78;;;-5.24;100.00
54407;BME280;40313;50.308;30.374;2022-12-18T14:09:04;100977.19;;;-5.33;100.00
54407;BME280;40313;50.308;30.374;2022-12-18T14:11:30;100986.56;;;-5.30;100.00
54407;BME280;40313;50.308;30.374;2022-12-18T14:13:58;100991.69;;;-5.29;100.00
54407;BME280;40313;50.308;30.374;2022-12-18T14:16:25;101008.56;;;-5.32;100.00
54407;BME280;40313;50.308;30.374;2022-12-18T14:18:53;101007.47;;;-5.41;100.00
54407;BME280;40313;50.308;30.374;2022-12-18T14:21:21;101017.63;;;-5.41;100.00
54407;BME280;40313;50.308;30.374;2022-12-18T14:23:48;101026.03;;;-5.43;100.00
54407;BME280;40313;50.308;30.374;2022-12-18T14:26:23;101031.19;;;-5.40;100.00
54407;BME280;40313;50.308;30.374;2022-12-18T14:28:52;101035.44;;;-5.41;100.00
54407;BME280;40313;50.308;30.374;2022-12-18T14:31:20;101040.53;;;-5.41;100.00
54407;BME280;40313;50.308;30.374;2022-12-18T14:33:48;101045.50;;;-5.44;100.00
54407;BME280;40313;50.308;30.374;2022-12-18T14:36:15;101036.38;;;-5.39;100.00
54407;BME280;40313;50.308;30.374;2022-12-18T21:20:42;101656.56;;;-7.87;100.00
54407;BME280;40313;50.308;30.374;2022-12-18T21:23:09;101664.09;;;-7.88;100.00
54407;BME280;40313;50.308;30.374;2022-12-18T21:25:36;101658.56;;;-7.81;100.00
54407;BME280;40313;50.308;30.374;2022-12-18T21:28:03;101666.22;;;-7.79;100.00
54407;BME280;40313;50.308;30.374;2022-12-18T21:30:29;101662.72;;;-7.82;100.00
54407;BME280;40313;50.308;30.374;2022-12-18T21:32:56;101670.31;;;-7.82;100.00
54407;BME280;40313;50.308;30.374;2022-12-18T21:35:22;101677.00;;;-7.84;100.00
54407;BME280;40313;50.308;30.374;2022-12-18T21:37:50;101671.78;;;-7.87;100.00
54407;BME280;40313;50.308;30.374;2022-12-18T21:40:17;101665.66;;;-7.90;100.00
54407;BME280;40313;50.308;30.374;2022-12-18T21:42:43;101670.03;;;-7.88;100.00
54407;BME280;40313;50.308;30.374;2022-12-18T21:45:27;101678.19;;;-7.93;100.00
54407;BME280;40313;50.308;30.374;2022-12-18T21:47:54;101673.59;;;-8.01;100.00
54407;BME280;40313;50.308;30.374;2022-12-18T21:50:20;101669.22;;;-8.03;100.00
54407;BME280;40313;50.308;30.374;2022-12-18T21:52:47;101674.06;;;-8.08;100.00
54407;BME280;40313;50.308;30.374;2022-12-18T21:55:15;101687.59;;;-8.07;100.00
54407;BME280;40313;50.308;30.374;2022-12-18T21:57:42;101682.19;;;-8.13;100.00
54407;BME280;40313;50.308;30.374;2022-12-18T22:00:11;101688.25;;;-8.11;100.00
54407;BME280;40313;50.308;30.374;2022-12-18T22:02:38;101698.38;;;-8.11;100.00
54407;BME280;40313;50.308;30.374;2022-12-18T22:05:05;101694.09;;;-8.12;100.00
54407;BME280;40313;50.308;30.374;2022-12-18T22:07:31;101703.91;;;-8.19;100.00
54407;BME280;40313;50.308;30.374;2022-12-18T22:09:58;101693.09;;;-8.31;100.00
54407;BME280;40313;50.308;30.374;2022-12-18T22:12:26;101703.59;;;-8.40;100.00
54407;BME280;40313;50.308;30.374;2022-12-18T22:15:01;101709.53;;;-8.56;100.00
54407;BME280;40313;50.308;30.374;2022-12-18T22:17:28;101703.72;;;-8.70;100.00
54407;BME280;40313;50.308;30.374;2022-12-18T22:19:54;101706.16;;;-8.86;100.00
54407;BME280;40313;50.308;30.374;2022-12-18T22:22:21;101702.16;;;-8.97;100.00
54407;BME280;40313;50.308;30.374;2022-12-18T22:24:47;101714.38;;;-9.05;100.00
54407;BME280;40313;50.308;30.374;2022-12-18T22:27:14;101715.97;;;-9.07;100.00
54407;BME280;40313;50.308;30.374;2022-12-18T22:29:41;101709.50;;;-9.17;100.00
54407;BME280;40313;50.308;30.374;2022-12-18T22:32:26;101712.56;;;-9.23;100.00
54407;BME280;40313;50.308;30.374;2022-12-18T22:34:52;101714.69;;;-9.29;100.00
54407;BME280;40313;50.308;30.374;2022-12-18T22:37:19;101714.34;;;-9.35;100.00
54407;BME280;40313;50.308;30.374;2022-12-18T22:39:45;101716.88;;;-9.35;100.00
